createdAt,value
2022-08-05T00:00:53.607Z,26.46
2022-08-05T00:03:20.241Z,26.41
2022-08-05T00:06:04.909Z,26.38
2022-08-05T00:08:34.773Z,26.32
2022-08-05T00:11:04.481Z,26.27
2022-08-05T00:13:52.925Z,26.22
2022-08-05T00:16:35.437Z,26.19
2022-08-05T00:19:04.401Z,26.13
2022-08-05T00:21:30.963Z,26.06
2022-08-05T00:24:09.905Z,26.04
2022-08-05T00:26:38.700Z,26.00
2022-08-05T00:29:05.294Z,25.97
2022-08-05T00:31:53.349Z,25.95
2022-08-05T00:34:56.407Z,25.92
2022-08-05T00:37:09.721Z,25.87
2022-08-05T00:39:44.077Z,25.86
2022-08-05T00:42:32.658Z,25.82
2022-08-05T00:45:00.394Z,25.81
2022-08-05T00:47:31.728Z,25.78
2022-08-05T00:50:14.010Z,25.73
2022-08-05T00:52:41.823Z,25.70
2022-08-05T00:55:12.138Z,25.67
2022-08-05T00:57:58.812Z,25.64
2022-08-05T01:00:26.184Z,25.60
2022-08-05T01:02:53.021Z,25.57
2022-08-05T01:05:19.985Z,25.55
2022-08-05T01:08:29.779Z,25.51
2022-08-05T01:11:02.778Z,25.45
2022-08-05T01:13:57.588Z,25.41
2022-08-05T01:16:38.423Z,25.38
2022-08-05T01:19:46.225Z,25.32
2022-08-05T01:22:40.340Z,25.25
2022-08-05T01:25:41.558Z,25.19
2022-08-05T01:28:17.179Z,25.15
2022-08-05T01:30:53.905Z,25.10
2022-08-05T01:33:35.396Z,25.06
2022-08-05T01:36:13.198Z,25.02
2022-08-05T01:38:45.660Z,25.01
2022-08-05T01:41:18.390Z,24.97
2022-08-05T01:43:50.844Z,24.96
2022-08-05T01:46:42.466Z,24.95
2022-08-05T01:49:23.181Z,24.94
2022-08-05T01:51:56.135Z,24.93
2022-08-05T01:54:29.175Z,24.94
2022-08-05T01:58:10.638Z,24.92
2022-08-05T01:59:48.363Z,24.92
2022-08-05T02:02:16.670Z,24.90
2022-08-05T02:04:49.653Z,24.90
2022-08-05T02:07:21.663Z,24.88
2022-08-05T02:09:50.058Z,24.87
2022-08-05T02:12:33.114Z,24.85
2022-08-05T02:15:04.311Z,24.83
2022-08-05T02:18:32.691Z,24.81
2022-08-05T02:20:30.671Z,24.76
2022-08-05T02:23:09.116Z,24.72
2022-08-05T02:25:49.104Z,24.69
2022-08-05T02:28:26.390Z,24.66
2022-08-05T02:31:00.289Z,24.59
2022-08-05T02:33:35.903Z,24.58
2022-08-05T02:36:10.322Z,24.55
2022-08-05T02:38:44.442Z,24.54
2022-08-05T02:41:22.760Z,24.53
2022-08-05T02:44:06.404Z,24.54
2022-08-05T02:46:53.721Z,24.53
2022-08-05T02:49:35.810Z,24.55
2022-08-05T02:52:09.184Z,24.56
2022-08-05T02:54:37.637Z,24.59
2022-08-05T02:58:12.349Z,24.61
2022-08-05T02:59:59.350Z,24.62
2022-08-05T03:02:34.330Z,24.64
2022-08-05T03:05:01.938Z,24.67
2022-08-05T03:07:56.568Z,24.69
2022-08-05T03:10:24.454Z,24.70
2022-08-05T03:12:52.776Z,24.73
2022-08-05T03:15:20.752Z,24.75
2022-08-05T03:17:47.266Z,24.76
2022-08-05T03:20:14.161Z,24.78
2022-08-05T03:22:44.353Z,24.78
2022-08-05T03:25:32.530Z,24.80
2022-08-05T03:28:08.200Z,24.79
2022-08-05T03:30:36.051Z,24.78
2022-08-05T03:33:04.308Z,24.77
2022-08-05T03:35:33.601Z,24.76
2022-08-05T03:38:01.039Z,24.63
2022-08-05T03:40:32.468Z,24.70
2022-08-05T03:43:01.374Z,24.70
2022-08-05T03:45:57.109Z,24.66
2022-08-05T03:48:24.111Z,24.60
2022-08-05T03:50:59.105Z,24.58
2022-08-05T03:55:53.147Z,24.53
2022-08-05T03:56:47.698Z,24.51
2022-08-05T03:59:46.480Z,24.47
2022-08-05T04:02:17.501Z,24.45
2022-08-05T04:05:02.750Z,24.31
2022-08-05T04:07:30.848Z,24.38
2022-08-05T04:10:03.093Z,24.38
2022-08-05T04:12:29.933Z,24.38
2022-08-05T04:14:59.269Z,24.36
2022-08-05T04:17:55.683Z,24.35
2022-08-05T04:20:24.293Z,24.32
2022-08-05T04:22:50.916Z,24.32
2022-08-05T04:25:17.763Z,24.32
2022-08-05T04:27:56.810Z,24.30
2022-08-05T04:30:26.408Z,24.31
2022-08-05T04:32:53.272Z,24.30
2022-08-05T04:35:20.192Z,24.29
2022-08-05T04:38:01.156Z,24.29
2022-08-05T04:40:32.809Z,24.30
2022-08-05T04:42:59.334Z,24.31
2022-08-05T04:45:47.890Z,24.30
2022-08-05T04:48:18.708Z,24.31
2022-08-05T04:51:02.975Z,24.31
2022-08-05T04:53:36.639Z,24.32
2022-08-05T04:56:32.306Z,24.34
2022-08-05T04:58:54.121Z,24.36
2022-08-05T05:01:33.809Z,24.37
2022-08-05T05:04:07.625Z,24.38
2022-08-05T05:06:36.686Z,24.43
2022-08-05T05:09:14.194Z,24.49
2022-08-05T05:11:53.244Z,24.57
2022-08-05T05:14:27.983Z,24.67
2022-08-05T05:17:01.969Z,24.63
2022-08-05T05:19:36.428Z,24.84
2022-08-05T05:22:23.446Z,24.95
2022-08-05T05:24:58.536Z,25.06
2022-08-05T05:27:44.712Z,25.18
2022-08-05T05:30:29.077Z,25.30
2022-08-05T05:33:03.776Z,25.42
2022-08-05T05:35:43.194Z,25.55
2022-08-05T05:38:12.819Z,25.65
2022-08-05T05:40:47.956Z,25.77
2022-08-05T05:43:28.078Z,25.87
2022-08-05T05:46:03.564Z,25.98
2022-08-05T05:48:32.225Z,26.10
2022-08-05T05:51:14.784Z,26.21
2022-08-05T05:53:54.579Z,26.33
2022-08-05T05:56:31.548Z,26.47
2022-08-05T05:59:06.553Z,26.59
2022-08-05T06:01:37.864Z,26.72
2022-08-05T06:04:14.343Z,26.85
2022-08-05T06:06:46.619Z,26.99
2022-08-05T06:09:18.203Z,27.12
2022-08-05T06:11:59.725Z,27.27
2022-08-05T06:14:33.329Z,27.40
2022-08-05T06:17:21.603Z,27.57
2022-08-05T06:19:57.190Z,27.69
2022-08-05T06:22:33.598Z,27.85
2022-08-05T06:25:59.040Z,28.00
2022-08-05T06:28:12.820Z,28.16
2022-08-05T06:30:35.365Z,28.28
2022-08-05T06:33:02.189Z,28.40
2022-08-05T06:36:08.093Z,28.52
2022-08-05T06:38:16.129Z,28.66
2022-08-05T06:40:44.634Z,28.79
2022-08-05T06:43:59.826Z,28.87
2022-08-05T06:46:04.147Z,28.95
2022-08-05T06:48:53.040Z,29.02
2022-08-05T06:51:25.325Z,29.10
2022-08-05T06:53:58.024Z,29.20
2022-08-05T06:56:26.656Z,29.23
2022-08-05T06:58:53.974Z,29.27
2022-08-05T07:01:21.243Z,29.34
2022-08-05T07:03:49.356Z,29.43
2022-08-05T07:06:16.292Z,29.49
2022-08-05T07:08:48.066Z,29.55
2022-08-05T07:11:22.220Z,29.60
2022-08-05T07:13:58.570Z,29.70
2022-08-05T07:18:00.303Z,29.82
2022-08-05T07:19:44.352Z,29.96
2022-08-05T07:22:02.740Z,29.96
2022-08-05T07:24:29.938Z,30.23
2022-08-05T07:26:56.637Z,30.37
2022-08-05T07:30:22.833Z,30.50
2022-08-05T07:32:10.450Z,30.65
2022-08-05T07:34:42.014Z,30.78
2022-08-05T07:37:11.596Z,30.88
2022-08-05T07:40:27.110Z,30.96
2022-08-05T07:42:33.638Z,31.06
2022-08-05T07:45:01.178Z,31.11
2022-08-05T07:47:27.706Z,31.19
2022-08-05T07:50:09.501Z,31.24
2022-08-05T07:52:41.055Z,31.27
2022-08-05T07:55:15.707Z,31.30
2022-08-05T07:58:02.086Z,31.29
2022-08-05T08:00:29.916Z,31.34
2022-08-05T08:03:13.609Z,31.39
2022-08-05T08:05:49.416Z,31.43
2022-08-05T08:08:19.829Z,31.44
2022-08-05T08:10:49.011Z,31.42
2022-08-05T08:13:22.157Z,31.40
2022-08-05T08:16:49.648Z,31.39
2022-08-05T08:18:43.321Z,31.33
2022-08-05T08:21:17.664Z,31.30
2022-08-05T08:24:02.684Z,31.26
2022-08-05T08:26:31.276Z,31.24
2022-08-05T08:29:21.540Z,31.22
2022-08-05T08:31:46.617Z,31.18
2022-08-05T08:34:15.378Z,31.17
2022-08-05T08:36:47.617Z,31.17
2022-08-05T08:39:21.629Z,31.13
2022-08-05T08:41:52.275Z,31.09
2022-08-05T08:45:22.447Z,30.98
2022-08-05T08:47:21.853Z,31.13
2022-08-05T08:50:07.691Z,31.14
2022-08-05T08:52:39.268Z,31.15
2022-08-05T08:55:13.456Z,31.15
2022-08-05T08:57:58.414Z,31.12
2022-08-05T09:00:25.604Z,31.10
2022-08-05T09:02:53.424Z,31.11
2022-08-05T09:05:38.560Z,31.08
2022-08-05T09:08:07.267Z,31.05
2022-08-05T09:10:36.567Z,31.07
2022-08-05T09:13:08.084Z,31.05
2022-08-05T09:15:36.998Z,31.03
2022-08-05T09:18:07.349Z,31.03
2022-08-05T09:20:38.569Z,31.01
2022-08-05T09:23:09.455Z,30.98
2022-08-05T09:26:00.898Z,30.98
2022-08-05T09:28:32.125Z,30.95
2022-08-05T09:31:03.642Z,31.00
2022-08-05T09:33:59.207Z,31.02
2022-08-05T09:36:45.770Z,31.04
2022-08-05T09:39:22.475Z,31.14
2022-08-05T09:42:04.681Z,31.11
2022-08-05T09:44:39.971Z,31.20
2022-08-05T09:47:17.677Z,31.26
2022-08-05T09:50:00.669Z,31.35
2022-08-05T09:52:33.073Z,31.41
2022-08-05T09:55:57.384Z,31.41
2022-08-05T09:57:54.360Z,31.40
2022-08-05T10:00:22.474Z,31.42
2022-08-05T10:02:53.154Z,31.45
2022-08-05T10:05:32.693Z,31.46
2022-08-05T10:08:36.831Z,31.53
2022-08-05T10:10:54.503Z,31.56
2022-08-05T10:13:45.671Z,31.60
2022-08-05T10:16:41.712Z,31.65
2022-08-05T10:19:23.804Z,31.73
2022-08-05T10:22:09.053Z,31.79
2022-08-05T10:24:42.458Z,31.88
2022-08-05T10:27:13.154Z,32.06
2022-08-05T10:30:41.247Z,32.10
2022-08-05T10:32:59.619Z,32.24
2022-08-05T10:35:19.417Z,32.29
2022-08-05T10:37:47.568Z,32.34
2022-08-05T10:40:31.796Z,32.55
2022-08-05T10:43:07.629Z,32.69
2022-08-05T10:45:40.541Z,32.73
2022-08-05T10:48:52.646Z,32.72
2022-08-05T10:51:28.765Z,32.81
2022-08-05T10:53:56.021Z,32.82
2022-08-05T10:56:27.765Z,32.90
2022-08-05T10:58:55.542Z,33.00
2022-08-05T11:01:54.513Z,33.05
2022-08-05T11:04:23.398Z,33.07
2022-08-05T11:06:58.972Z,33.10
2022-08-05T11:09:45.451Z,33.17
2022-08-05T11:12:43.066Z,33.13
2022-08-05T11:15:22.746Z,33.16
2022-08-05T11:17:57.289Z,33.16
2022-08-05T11:20:41.770Z,33.13
2022-08-05T11:24:05.750Z,33.15
2022-08-05T11:26:32.487Z,33.20
2022-08-05T11:29:11.979Z,33.32
2022-08-05T11:31:58.293Z,33.43
2022-08-05T11:34:39.138Z,33.40
2022-08-05T11:38:30.244Z,33.45
2022-08-05T11:40:00.741Z,33.47
2022-08-05T11:42:32.901Z,33.52
2022-08-05T11:45:26.760Z,33.57
2022-08-05T11:47:54.807Z,33.68
2022-08-05T11:50:22.497Z,33.81
2022-08-05T11:52:53.134Z,33.85
2022-08-05T11:55:24.023Z,33.96
2022-08-05T11:58:10.145Z,34.03
2022-08-05T12:00:39.136Z,34.05
2022-08-05T12:03:29.461Z,34.10
2022-08-05T12:06:05.902Z,34.15
2022-08-05T12:08:49.859Z,34.24
2022-08-05T12:11:22.385Z,34.34
2022-08-05T12:13:58.661Z,34.54
2022-08-05T12:16:28.837Z,34.64
2022-08-05T12:18:56.011Z,34.72
2022-08-05T12:21:26.781Z,34.70
2022-08-05T12:24:05.069Z,34.74
2022-08-05T12:26:43.826Z,34.76
2022-08-05T12:29:22.812Z,34.80
2022-08-05T12:32:02.185Z,34.88
2022-08-05T12:34:36.770Z,34.94
2022-08-05T12:37:07.789Z,35.03
2022-08-05T12:39:38.578Z,35.20
2022-08-05T12:42:18.937Z,35.27
2022-08-05T12:44:47.654Z,35.31
2022-08-05T12:47:26.437Z,35.34
2022-08-05T12:50:04.720Z,35.33
2022-08-05T12:52:41.914Z,35.34
2022-08-05T12:55:28.393Z,35.32
2022-08-05T12:58:48.633Z,35.44
2022-08-05T13:01:59.786Z,35.50
2022-08-05T13:03:41.776Z,35.47
2022-08-05T13:06:15.999Z,35.74
2022-08-05T13:08:50.776Z,35.96
2022-08-05T13:11:59.940Z,36.06
2022-08-05T13:14:24.951Z,36.17
2022-08-05T13:17:07.404Z,36.24
2022-08-05T13:19:52.433Z,36.32
2022-08-05T13:22:27.728Z,36.45
2022-08-05T13:24:58.051Z,36.52
2022-08-05T13:27:35.700Z,36.64
2022-08-05T13:30:36.065Z,36.46
2022-08-05T13:32:52.871Z,36.58
2022-08-05T13:35:43.297Z,36.53
2022-08-05T13:38:14.535Z,36.40
2022-08-05T13:40:55.304Z,36.33
2022-08-05T13:43:22.416Z,36.25
2022-08-05T13:45:49.100Z,36.20
2022-08-05T13:48:58.742Z,36.14
2022-08-05T13:51:12.882Z,36.11
2022-08-05T13:53:47.992Z,36.07
2022-08-05T13:56:18.950Z,36.01
2022-08-05T13:58:53.044Z,35.95
2022-08-05T14:01:25.941Z,35.92
2022-08-05T14:04:03.573Z,35.91
2022-08-05T14:06:30.743Z,35.91
2022-08-05T14:08:59.562Z,35.94
2022-08-05T14:11:26.377Z,35.89
2022-08-05T14:13:57.990Z,35.82
2022-08-05T14:16:24.645Z,35.75
2022-08-05T14:18:51.414Z,35.66
2022-08-05T14:22:06.714Z,35.64
2022-08-05T14:24:05.163Z,35.63
2022-08-05T14:26:38.285Z,35.59
2022-08-05T14:29:16.628Z,35.58
2022-08-05T14:32:03.060Z,35.58
2022-08-05T14:34:35.002Z,35.58
2022-08-05T14:37:04.212Z,35.57
2022-08-05T14:39:31.854Z,35.58
2022-08-05T14:42:20.892Z,35.58
2022-08-05T14:44:49.029Z,35.62
2022-08-05T14:47:15.541Z,35.72
2022-08-05T14:49:56.454Z,35.86
2022-08-05T14:52:51.896Z,36.05
2022-08-05T14:55:15.595Z,36.14
2022-08-05T14:57:54.397Z,36.26
2022-08-05T15:00:25.245Z,36.43
2022-08-05T15:02:55.481Z,36.70
2022-08-05T15:05:22.624Z,36.95
2022-08-05T15:08:08.535Z,37.31
2022-08-05T15:10:39.979Z,37.61
2022-08-05T15:13:10.243Z,37.96
2022-08-05T15:15:55.842Z,38.36
2022-08-05T15:18:23.181Z,38.58
2022-08-05T15:20:50.061Z,38.80
2022-08-05T15:23:17.733Z,39.19
2022-08-05T15:25:52.971Z,39.36
2022-08-05T15:28:26.951Z,39.30
2022-08-05T15:30:55.386Z,39.25
2022-08-05T15:34:06.195Z,39.21
2022-08-05T15:36:17.357Z,39.25
2022-08-05T15:39:07.605Z,39.37
2022-08-05T15:41:58.045Z,39.50
2022-08-05T15:44:30.432Z,39.68
2022-08-05T15:46:57.521Z,39.83
2022-08-05T15:49:48.126Z,39.90
2022-08-05T15:52:16.596Z,40.02
2022-08-05T15:54:56.572Z,40.17
2022-08-05T15:57:23.490Z,40.27
2022-08-05T15:59:56.676Z,40.39
2022-08-05T16:02:25.635Z,40.59
2022-08-05T16:04:54.334Z,40.75
2022-08-05T16:07:20.992Z,40.81
2022-08-05T16:09:49.760Z,40.85
2022-08-05T16:12:17.353Z,40.71
2022-08-05T16:14:46.665Z,40.48
2022-08-05T16:17:13.941Z,40.20
2022-08-05T16:20:05.130Z,39.92
2022-08-05T16:22:27.685Z,39.58
2022-08-05T16:25:00.779Z,39.24
2022-08-05T16:28:00.116Z,38.90
2022-08-05T16:30:23.111Z,38.56
2022-08-05T16:32:54.312Z,38.25
2022-08-05T16:35:27.957Z,37.98
2022-08-05T16:38:16.429Z,37.67
2022-08-05T16:40:47.788Z,37.39
2022-08-05T16:43:19.487Z,37.17
2022-08-05T16:46:04.153Z,36.98
2022-08-05T16:48:35.351Z,36.82
2022-08-05T16:51:02.378Z,36.69
2022-08-05T16:54:04.147Z,36.55
2022-08-05T16:56:22.581Z,36.41
2022-08-05T16:58:50.241Z,36.30
2022-08-05T17:01:16.954Z,36.20
2022-08-05T17:03:45.680Z,36.09
2022-08-05T17:06:12.381Z,36.02
2022-08-05T17:08:53.265Z,35.93
2022-08-05T17:11:23.336Z,35.90
2022-08-05T17:13:50.339Z,35.85
2022-08-05T17:16:32.460Z,35.80
2022-08-05T17:19:01.462Z,35.72
2022-08-05T17:21:35.826Z,35.62
2022-08-05T17:24:29.195Z,35.52
2022-08-05T17:26:57.281Z,35.39
2022-08-05T17:29:33.410Z,35.26
2022-08-05T17:32:11.183Z,35.13
2022-08-05T17:34:39.029Z,34.98
2022-08-05T17:37:32.129Z,34.87
2022-08-05T17:39:56.042Z,34.76
2022-08-05T17:42:30.038Z,34.64
2022-08-05T17:44:59.905Z,34.53
2022-08-05T17:47:27.044Z,34.43
2022-08-05T17:50:03.958Z,34.30
2022-08-05T17:52:53.437Z,34.19
2022-08-05T17:55:22.719Z,34.08
2022-08-05T17:57:54.119Z,33.94
2022-08-05T18:00:20.704Z,33.83
2022-08-05T18:02:55.078Z,33.68
2022-08-05T18:05:22.003Z,33.56
2022-08-05T18:07:48.758Z,33.45
2022-08-05T18:10:20.946Z,33.35
2022-08-05T18:12:49.320Z,33.23
2022-08-05T18:15:16.234Z,33.13
2022-08-05T18:18:01.655Z,33.03
2022-08-05T18:20:32.018Z,32.93
2022-08-05T18:23:11.299Z,32.86
2022-08-05T18:25:45.479Z,32.77
2022-08-05T18:28:16.535Z,32.71
2022-08-05T18:30:50.980Z,32.62
2022-08-05T18:33:22.946Z,32.50
2022-08-05T18:36:03.670Z,32.44
2022-08-05T18:38:34.486Z,32.35
2022-08-05T18:41:54.250Z,32.29
2022-08-05T18:43:49.393Z,32.19
2022-08-05T18:46:19.933Z,32.13
2022-08-05T18:48:51.932Z,32.07
2022-08-05T18:52:04.714Z,31.99
2022-08-05T18:54:10.310Z,31.92
2022-08-05T18:56:37.088Z,31.88
2022-08-05T18:59:41.781Z,31.80
2022-08-05T19:01:57.261Z,31.72
2022-08-05T19:04:25.572Z,31.67
2022-08-05T19:06:53.507Z,31.62
2022-08-05T19:09:21.190Z,31.58
2022-08-05T19:11:59.526Z,31.53
2022-08-05T19:14:44.513Z,31.49
2022-08-05T19:17:16.628Z,31.45
2022-08-05T19:19:46.931Z,31.43
2022-08-05T19:22:17.023Z,31.41
2022-08-05T19:24:56.049Z,31.38
2022-08-05T19:27:27.750Z,31.33
2022-08-05T19:29:57.636Z,31.29
2022-08-05T19:32:26.263Z,31.26
2022-08-05T19:34:55.666Z,31.21
2022-08-05T19:37:30.096Z,31.17
2022-08-05T19:40:12.758Z,31.12
2022-08-05T19:42:42.087Z,31.08
2022-08-05T19:45:27.778Z,31.03
2022-08-05T19:47:59.798Z,30.95
2022-08-05T19:50:26.547Z,30.82
2022-08-05T19:52:53.066Z,30.52
2022-08-05T19:56:14.994Z,30.23
2022-08-05T19:58:29.248Z,29.58
2022-08-05T20:00:53.129Z,28.83
2022-08-05T20:03:19.874Z,28.09
2022-08-05T20:05:51.098Z,27.34
2022-08-05T20:08:18.335Z,26.63
2022-08-05T20:10:44.930Z,26.04
2022-08-05T20:13:17.795Z,25.50
2022-08-05T20:15:51.475Z,25.04
2022-08-05T20:18:33.681Z,24.68
2022-08-05T20:21:04.822Z,24.33
2022-08-05T20:23:39.780Z,24.07
2022-08-05T20:26:18.716Z,23.75
2022-08-05T20:28:47.196Z,23.53
2022-08-05T20:31:13.888Z,23.29
2022-08-05T20:33:43.827Z,23.25
2022-08-05T20:36:11.467Z,23.14
2022-08-05T20:38:40.830Z,23.04
2022-08-05T20:41:23.883Z,22.97
2022-08-05T20:43:59.509Z,22.94
2022-08-05T20:46:29.428Z,22.92
2022-08-05T20:48:56.034Z,22.92
2022-08-05T20:51:22.610Z,22.91
2022-08-05T20:53:56.509Z,22.93
2022-08-05T20:56:28.863Z,22.96
2022-08-05T20:59:00.065Z,22.97
2022-08-05T21:01:41.464Z,23.03
2022-08-05T21:04:09.993Z,23.05
2022-08-05T21:06:45.659Z,23.14
2022-08-05T21:09:14.773Z,23.23
2022-08-05T21:12:09.067Z,23.18
2022-08-05T21:14:34.720Z,23.08
2022-08-05T21:17:05.087Z,23.02
2022-08-05T21:19:47.042Z,22.90
2022-08-05T21:22:18.620Z,22.85
2022-08-05T21:24:51.712Z,22.76
2022-08-05T21:27:25.498Z,22.69
2022-08-05T21:29:57.968Z,22.58
2022-08-05T21:32:28.853Z,22.51
2022-08-05T21:35:08.824Z,22.45
2022-08-05T21:37:52.646Z,22.42
2022-08-05T21:40:22.419Z,22.38
2022-08-05T21:42:51.893Z,22.34
2022-08-05T21:45:51.496Z,22.35
2022-08-05T21:48:08.254Z,22.32
2022-08-05T21:50:35.059Z,22.31
2022-08-05T21:53:16.603Z,22.28
2022-08-05T21:56:04.755Z,22.27
2022-08-05T21:58:32.202Z,22.28
2022-08-05T22:00:59.432Z,22.28
2022-08-05T22:03:52.323Z,22.31
2022-08-05T22:06:12.658Z,22.32
2022-08-05T22:08:42.598Z,22.36
2022-08-05T22:11:11.511Z,22.39
2022-08-05T22:14:19.510Z,22.41
2022-08-05T22:16:41.693Z,22.42
2022-08-05T22:20:02.662Z,22.44
2022-08-05T22:22:02.969Z,22.45
2022-08-05T22:24:39.750Z,22.44
2022-08-05T22:27:10.784Z,22.30
2022-08-05T22:29:40.581Z,22.39
2022-08-05T22:32:10.000Z,22.38
2022-08-05T22:34:37.010Z,22.35
2022-08-05T22:37:04.825Z,22.34
2022-08-05T22:39:33.878Z,22.33
2022-08-05T22:42:11.511Z,22.33
2022-08-05T22:44:42.689Z,22.33
2022-08-05T22:47:29.771Z,22.33
2022-08-05T22:50:20.000Z,22.33
2022-08-05T22:52:45.185Z,22.36
2022-08-05T22:55:19.513Z,22.38
2022-08-05T22:57:47.201Z,22.41
2022-08-05T23:00:18.227Z,22.44
2022-08-05T23:02:47.958Z,22.46
2022-08-05T23:05:15.995Z,22.49
2022-08-05T23:07:44.979Z,22.52
2022-08-05T23:10:14.994Z,22.56
2022-08-05T23:12:43.919Z,22.59
2022-08-05T23:15:11.898Z,22.58
2022-08-05T23:18:00.997Z,22.59
2022-08-05T23:20:25.464Z,22.57
2022-08-05T23:22:56.130Z,22.58
2022-08-05T23:25:52.816Z,22.59
2022-08-05T23:28:11.946Z,22.60
2022-08-05T23:30:40.464Z,22.61
2022-08-05T23:33:21.970Z,22.63
2022-08-05T23:35:50.839Z,22.64
2022-08-05T23:38:18.049Z,22.50
2022-08-05T23:40:50.258Z,22.59
2022-08-05T23:43:24.965Z,22.57
2022-08-05T23:46:05.023Z,22.55
2022-08-05T23:48:47.311Z,22.52
2022-08-05T23:51:29.063Z,22.51
2022-08-05T23:54:00.996Z,22.50
2022-08-05T23:56:28.002Z,22.46
2022-08-05T23:58:54.724Z,22.45
